»·PEaware :: N221XG KSMO-KTVL

N221XG :: KSMO-KTVL

FLIGHT INFORMATION

Flight Status: Arrived
Operator: Privately registered:
United States
More flights under this callsign
Pilot: Ryan L. (9775)
Aircraft: BEECH AIRCRAFT SUPER KING AIR 350
(B350)
More flights by this aircraft type
Origin: KSMO Santa Monica Mun
United States
Destination: KTVL Lake Tahoe
United States
More flights between these airports :: More routes between these airports
Route: V23 EHF J5 FMG
File this flight plan on PilotEdge
Remarks:
Altitude:
(Current/Filed)
28,000ft
Speed:
(Current/Filed)
300kts
Departed: 22-May-19 06:00 PM
Arrived: 22-May-19 07:28 PM
Distance/Time
Traveled:
302nm/1:27
Distance/Time
To Go:
Arrived

Flight Plot

Page will automatically refresh every two minutes.

Flight plan parsing failed; only flown route is shown


Map Options




Map Legend


Flown Route
Filed Route
Departure Airport
Arrival Airport
Navaid (VOR, NDB)
Fix

Horizontal Profiles

Position Reports

Time Latitude Longitude Heading Altitude Ground
Speed
22-May-19 17:46 34.017621 -118.445139 327 182ft 0kts
22-May-19 17:47 34.017621 -118.445139 327 182ft 0kts
22-May-19 17:48 34.017621 -118.445139 327 182ft 0kts
22-May-19 17:49 34.017621 -118.445139 327 182ft 0kts
22-May-19 17:50 34.017621 -118.445139 327 182ft 0kts
22-May-19 17:51 34.017621 -118.445139 327 182ft 0kts
22-May-19 17:52 34.017621 -118.445139 327 182ft 0kts
22-May-19 17:53 34.017621 -118.445139 327 182ft 0kts
22-May-19 17:54 34.017621 -118.445139 327 182ft 0kts
22-May-19 17:55 34.017639 -118.445139 327 182ft 2kts
22-May-19 17:56 34.018350 -118.445121 343 182ft 5kts
22-May-19 17:57 34.019839 -118.445483 8 182ft 1kts
22-May-19 17:58 34.020536 -118.445747 227 182ft 0kts
22-May-19 17:59 34.009258 -118.458757 222 474ft 131kts
22-May-19 18:00 33.977641 -118.486636 226 2417ft 153kts
22-May-19 18:01 33.970912 -118.536324 277 3116ft 174kts
22-May-19 18:02 33.976858 -118.597301 277 4297ft 169kts
22-May-19 18:03 33.981583 -118.653715 276 6085ft 174kts
22-May-19 18:04 34.017064 -118.677530 1 7740ft 180kts
22-May-19 18:05 34.067037 -118.672608 1 9510ft 181kts
22-May-19 18:06 34.116237 -118.668619 1 11311ft 175kts
22-May-19 18:07 34.164555 -118.665752 1 12916ft 176kts
22-May-19 18:08 34.223066 -118.662809 1 13021ft 240kts
22-May-19 18:09 34.288795 -118.687253 341 13859ft 239kts
22-May-19 18:10 34.347481 -118.713901 340 15585ft 216kts
22-May-19 18:11 34.402530 -118.736133 348 17341ft 202kts
22-May-19 18:12 34.455441 -118.753656 348 19103ft 193kts
22-May-19 18:13 34.506975 -118.770733 348 20668ft 198kts
22-May-19 18:14 34.562272 -118.789001 348 21908ft 214kts
22-May-19 18:15 34.621496 -118.808587 349 23134ft 226kts
22-May-19 18:16 34.683571 -118.829143 349 24345ft 235kts
22-May-19 18:17 34.747510 -118.850317 347 25534ft 240kts
22-May-19 18:18 34.811792 -118.871754 346 26710ft 240kts
22-May-19 18:19 34.875876 -118.893108 345 27859ft 238kts
22-May-19 18:20 34.944521 -118.916009 345 27884ft 272kts
22-May-19 18:21 35.020521 -118.941395 346 27876ft 293kts
22-May-19 18:22 35.100414 -118.968164 346 27869ft 300kts
22-May-19 18:23 35.171946 -118.991717 346 27872ft 304kts
22-May-19 18:24 35.253825 -119.019231 346 27868ft 306kts
22-May-19 18:25 35.336248 -119.046982 346 27865ft 307kts
22-May-19 18:26 35.418511 -119.074752 347 27867ft 307kts
22-May-19 18:27 35.501294 -119.099917 352 27875ft 305kts
22-May-19 18:28 35.585979 -119.110033 357 27876ft 309kts
22-May-19 18:29 35.673090 -119.120026 356 27875ft 318kts
22-May-19 18:30 35.760483 -119.130591 356 27870ft 311kts
22-May-19 18:31 35.845900 -119.141001 356 27869ft 306kts
22-May-19 18:32 35.930024 -119.151291 356 27871ft 303kts
22-May-19 18:33 36.013705 -119.161587 357 27872ft 301kts
22-May-19 18:34 36.096739 -119.171728 357 27868ft 299kts
22-May-19 18:35 36.178987 -119.181699 357 27876ft 299kts
22-May-19 18:36 36.261974 -119.191904 357 27876ft 300kts
22-May-19 18:37 36.345258 -119.202195 357 27875ft 300kts
22-May-19 18:38 36.428066 -119.212455 358 27874ft 299kts
22-May-19 18:39 36.510828 -119.222723 358 27873ft 300kts
22-May-19 18:40 36.593722 -119.233033 358 27867ft 300kts
22-May-19 18:41 36.676904 -119.243404 358 27864ft 300kts
22-May-19 18:42 36.760000 -119.253788 358 27864ft 301kts
22-May-19 18:43 36.843405 -119.264206 358 27865ft 301kts
22-May-19 18:44 36.926931 -119.274710 358 27864ft 301kts
22-May-19 18:45 37.010251 -119.285169 358 27862ft 301kts
22-May-19 18:46 37.093537 -119.295652 358 27852ft 301kts
22-May-19 18:47 37.173073 -119.305536 358 27873ft 302kts
22-May-19 18:48 37.256434 -119.316060 358 27881ft 301kts
22-May-19 18:49 37.339950 -119.326667 358 27890ft 302kts
22-May-19 18:50 37.423552 -119.337300 358 27882ft 301kts
22-May-19 18:51 37.507022 -119.349395 351 27878ft 304kts
22-May-19 18:52 37.589144 -119.372226 359 27888ft 299kts
22-May-19 18:54 37.672253 -119.382904 357 27877ft 300kts
22-May-19 18:55 37.755003 -119.394718 357 27883ft 299kts
22-May-19 18:56 37.837965 -119.406565 357 27893ft 299kts
22-May-19 18:57 37.920802 -119.418453 357 27895ft 299kts
22-May-19 18:58 38.003099 -119.430291 357 27891ft 299kts
22-May-19 18:59 38.086088 -119.442253 357 27892ft 299kts
22-May-19 19:00 38.168401 -119.453997 357 27895ft 300kts
22-May-19 19:01 38.251267 -119.465952 357 27898ft 300kts
22-May-19 19:02 38.334510 -119.478029 357 27919ft 301kts
22-May-19 19:03 38.417613 -119.490122 357 27248ft 297kts
22-May-19 19:04 38.497443 -119.501786 357 25745ft 282kts
22-May-19 19:05 38.574023 -119.513035 357 24244ft 273kts
22-May-19 19:06 38.648657 -119.523992 357 22736ft 267kts
22-May-19 19:07 38.721698 -119.534752 357 21245ft 266kts
22-May-19 19:08 38.795768 -119.545682 356 19915ft 263kts
22-May-19 19:09 38.865093 -119.555947 356 19609ft 250kts
22-May-19 19:10 38.935150 -119.566294 356 18116ft 256kts
22-May-19 19:11 39.006309 -119.576857 356 16612ft 258kts
22-May-19 19:11 39.065181 -119.586651 349 15340ft 254kts
22-May-19 19:13 39.132891 -119.634887 333 13536ft 226kts
22-May-19 19:14 39.184930 -119.677920 332 12045ft 220kts
22-May-19 19:14 39.226811 -119.712971 332 11943ft 217kts
22-May-19 19:16 39.266268 -119.789344 303 11932ft 217kts
22-May-19 19:17 39.291802 -119.858379 303 11938ft 211kts
22-May-19 19:17 39.313038 -119.915460 303 11938ft 211kts
22-May-19 19:19 39.309196 -119.995231 203 11946ft 242kts
22-May-19 19:19 39.253894 -119.994118 161 11927ft 239kts
22-May-19 19:20 39.191604 -119.963279 154 11113ft 230kts
22-May-19 19:21 39.131728 -119.959489 185 10354ft 222kts
22-May-19 19:22 39.072803 -119.967456 186 10138ft 209kts
22-May-19 19:23 39.017144 -119.975004 187 9033ft 194kts
22-May-19 19:24 38.968168 -119.977724 167 7603ft 153kts
22-May-19 19:25 38.930433 -119.984248 194 6747ft 132kts
22-May-19 19:26 38.896360 -119.994641 192 6269ft 96kts
22-May-19 19:27 38.890892 -119.996273 352 6269ft 7kts
22-May-19 19:28 38.892335 -119.996999 285 6269ft 2kts
22-May-19 19:29 38.892602 -119.997618 11 6269ft 0kts
22-May-19 19:30 38.892602 -119.997618 11 6269ft 0kts
22-May-19 19:31 38.892602 -119.997618 11 6269ft 0kts
22-May-19 19:32 38.892602 -119.997618 11 6269ft 0kts
22-May-19 19:33 38.892602 -119.997618 11 6269ft 0kts

Navigation Log

Ident Type
Flight plan parsing failed, navigation log unavailable